sensor_id;sensor_type;location;lat;lon;timestamp;P1;durP1;ratioP1;P2;durP2;ratioP2
40122;SDS011;25832;45.490;4.912;2022-08-30T00:01:28;4.60;;;2.28;;
40122;SDS011;25832;45.490;4.912;2022-08-30T00:03:55;2.50;;;2.20;;
40122;SDS011;25832;45.490;4.912;2022-08-30T00:06:23;5.70;;;3.35;;
40122;SDS011;25832;45.490;4.912;2022-08-30T00:08:50;4.05;;;2.33;;
40122;SDS011;25832;45.490;4.912;2022-08-30T00:11:18;4.45;;;2.60;;
40122;SDS011;25832;45.490;4.912;2022-08-30T00:13:47;4.68;;;2.70;;
40122;SDS011;25832;45.490;4.912;2022-08-30T00:16:15;4.57;;;2.97;;
40122;SDS011;25832;45.490;4.912;2022-08-30T00:18:41;6.80;;;2.60;;
40122;SDS011;25832;45.490;4.912;2022-08-30T00:21:07;6.53;;;2.53;;
40122;SDS011;25832;45.490;4.912;2022-08-30T00:23:34;4.65;;;2.75;;
40122;SDS011;25832;45.490;4.912;2022-08-30T00:26:01;6.18;;;2.58;;
40122;SDS011;25832;45.490;4.912;2022-08-30T00:28:27;5.43;;;2.53;;
40122;SDS011;25832;45.490;4.912;2022-08-30T00:30:53;2.75;;;2.40;;
40122;SDS011;25832;45.490;4.912;2022-08-30T00:33:19;11.63;;;3.30;;
40122;SDS011;25832;45.490;4.912;2022-08-30T00:35:45;7.40;;;2.55;;
40122;SDS011;25832;45.490;4.912;2022-08-30T00:38:11;3.90;;;2.40;;
40122;SDS011;25832;45.490;4.912;2022-08-30T00:40:38;5.85;;;2.70;;
40122;SDS011;25832;45.490;4.912;2022-08-30T00:43:07;5.88;;;2.78;;
40122;SDS011;25832;45.490;4.912;2022-08-30T00:45:36;5.28;;;2.83;;
40122;SDS011;25832;45.490;4.912;2022-08-30T00:48:03;5.05;;;2.85;;
40122;SDS011;25832;45.490;4.912;2022-08-30T00:50:32;6.15;;;2.97;;
40122;SDS011;25832;45.490;4.912;2022-08-30T00:55:26;5.45;;;2.95;;
40122;SDS011;25832;45.490;4.912;2022-08-30T00:57:55;10.55;;;3.08;;
40122;SDS011;25832;45.490;4.912;2022-08-30T01:00:26;7.65;;;3.15;;
40122;SDS011;25832;45.490;4.912;2022-08-30T01:02:52;5.03;;;2.78;;
40122;SDS011;25832;45.490;4.912;2022-08-30T01:05:18;4.57;;;2.83;;
40122;SDS011;25832;45.490;4.912;2022-08-30T01:07:44;3.10;;;2.50;;
40122;SDS011;25832;45.490;4.912;2022-08-30T01:10:10;5.70;;;2.75;;
40122;SDS011;25832;45.490;4.912;2022-08-30T01:12:38;5.55;;;3.92;;
40122;SDS011;25832;45.490;4.912;2022-08-30T01:15:04;8.55;;;3.13;;
40122;SDS011;25832;45.490;4.912;2022-08-30T01:17:30;6.28;;;3.92;;
40122;SDS011;25832;45.490;4.912;2022-08-30T01:19:59;5.25;;;3.78;;
40122;SDS011;25832;45.490;4.912;2022-08-30T01:25:13;3.63;;;3.15;;
40122;SDS011;25832;45.490;4.912;2022-08-30T01:27:51;5.13;;;3.03;;
40122;SDS011;25832;45.490;4.912;2022-08-30T01:30:20;8.88;;;4.18;;
40122;SDS011;25832;45.490;4.912;2022-08-30T01:32:48;4.40;;;3.45;;
40122;SDS011;25832;45.490;4.912;2022-08-30T01:35:17;6.18;;;3.80;;
40122;SDS011;25832;45.490;4.912;2022-08-30T01:37:44;6.53;;;3.53;;
40122;SDS011;25832;45.490;4.912;2022-08-30T01:40:11;5.47;;;3.63;;
40122;SDS011;25832;45.490;4.912;2022-08-30T01:42:38;8.18;;;3.90;;
40122;SDS011;25832;45.490;4.912;2022-08-30T01:45:05;5.90;;;3.95;;
40122;SDS011;25832;45.490;4.912;2022-08-30T01:47:31;4.40;;;4.00;;
40122;SDS011;25832;45.490;4.912;2022-08-30T01:49:57;10.48;;;4.00;;
40122;SDS011;25832;45.490;4.912;2022-08-30T01:52:23;6.75;;;3.75;;
40122;SDS011;25832;45.490;4.912;2022-08-30T01:54:49;6.22;;;4.00;;
40122;SDS011;25832;45.490;4.912;2022-08-30T01:57:17;4.97;;;3.83;;
40122;SDS011;25832;45.490;4.912;2022-08-30T01:59:45;5.43;;;3.30;;
40122;SDS011;25832;45.490;4.912;2022-08-30T02:02:14;7.70;;;3.90;;
40122;SDS011;25832;45.490;4.912;2022-08-30T02:04:42;5.53;;;3.95;;
40122;SDS011;25832;45.490;4.912;2022-08-30T02:07:08;6.53;;;4.07;;
40122;SDS011;25832;45.490;4.912;2022-08-30T02:09:34;8.60;;;4.50;;
40122;SDS011;25832;45.490;4.912;2022-08-30T02:12:01;5.40;;;3.97;;
40122;SDS011;25832;45.490;4.912;2022-08-30T02:14:30;5.95;;;4.53;;
40122;SDS011;25832;45.490;4.912;2022-08-30T02:16:55;6.93;;;4.43;;
40122;SDS011;25832;45.490;4.912;2022-08-30T02:19:21;5.95;;;4.70;;
40122;SDS011;25832;45.490;4.912;2022-08-30T02:21:48;10.00;;;5.03;;
40122;SDS011;25832;45.490;4.912;2022-08-30T02:24:14;4.95;;;3.70;;
40122;SDS011;25832;45.490;4.912;2022-08-30T02:26:39;7.07;;;4.53;;
40122;SDS011;25832;45.490;4.912;2022-08-30T02:29:06;7.00;;;4.63;;
40122;SDS011;25832;45.490;4.912;2022-08-30T02:31:32;8.98;;;4.45;;
40122;SDS011;25832;45.490;4.912;2022-08-30T02:33:59;7.20;;;4.22;;
40122;SDS011;25832;45.490;4.912;2022-08-30T02:36:25;5.82;;;4.32;;
40122;SDS011;25832;45.490;4.912;2022-08-30T02:38:51;8.13;;;4.53;;
40122;SDS011;25832;45.490;4.912;2022-08-30T02:41:17;7.90;;;3.85;;
40122;SDS011;25832;45.490;4.912;2022-08-30T02:43:43;4.95;;;4.03;;
40122;SDS011;25832;45.490;4.912;2022-08-30T02:46:09;9.27;;;4.40;;
40122;SDS011;25832;45.490;4.912;2022-08-30T02:48:35;4.75;;;4.25;;
40122;SDS011;25832;45.490;4.912;2022-08-30T02:51:08;5.57;;;4.35;;
40122;SDS011;25832;45.490;4.912;2022-08-30T02:53:36;10.75;;;4.70;;
40122;SDS011;25832;45.490;4.912;2022-08-30T02:56:02;5.35;;;4.20;;
40122;SDS011;25832;45.490;4.912;2022-08-30T02:58:28;5.32;;;4.68;;
40122;SDS011;25832;45.490;4.912;2022-08-30T03:00:55;5.97;;;3.95;;
40122;SDS011;25832;45.490;4.912;2022-08-30T03:03:20;5.88;;;4.97;;
40122;SDS011;25832;45.490;4.912;2022-08-30T03:05:46;7.10;;;4.45;;
40122;SDS011;25832;45.490;4.912;2022-08-30T03:08:12;7.80;;;4.90;;
40122;SDS011;25832;45.490;4.912;2022-08-30T03:10:39;4.55;;;4.00;;
40122;SDS011;25832;45.490;4.912;2022-08-30T03:13:04;11.02;;;5.28;;
40122;SDS011;25832;45.490;4.912;2022-08-30T03:15:32;4.97;;;4.00;;
40122;SDS011;25832;45.490;4.912;2022-08-30T03:17:59;6.47;;;4.88;;
40122;SDS011;25832;45.490;4.912;2022-08-30T03:20:25;6.10;;;4.55;;
40122;SDS011;25832;45.490;4.912;2022-08-30T03:22:51;5.28;;;4.60;;
40122;SDS011;25832;45.490;4.912;2022-08-30T03:25:17;7.18;;;4.97;;
40122;SDS011;25832;45.490;4.912;2022-08-30T03:27:47;8.20;;;5.10;;
40122;SDS011;25832;45.490;4.912;2022-08-30T03:30:15;15.10;;;4.93;;
40122;SDS011;25832;45.490;4.912;2022-08-30T03:32:41;7.43;;;5.28;;
40122;SDS011;25832;45.490;4.912;2022-08-30T03:35:07;6.65;;;4.78;;
40122;SDS011;25832;45.490;4.912;2022-08-30T03:37:33;8.18;;;5.15;;
40122;SDS011;25832;45.490;4.912;2022-08-30T03:40:00;7.35;;;5.43;;
40122;SDS011;25832;45.490;4.912;2022-08-30T03:42:27;5.47;;;4.50;;
40122;SDS011;25832;45.490;4.912;2022-08-30T03:44:53;6.38;;;4.97;;
40122;SDS011;25832;45.490;4.912;2022-08-30T03:47:19;6.10;;;5.45;;
40122;SDS011;25832;45.490;4.912;2022-08-30T03:49:45;9.18;;;4.88;;
40122;SDS011;25832;45.490;4.912;2022-08-30T03:52:11;6.50;;;5.38;;
40122;SDS011;25832;45.490;4.912;2022-08-30T03:54:36;6.93;;;4.40;;
40122;SDS011;25832;45.490;4.912;2022-08-30T03:57:04;4.93;;;4.43;;
40122;SDS011;25832;45.490;4.912;2022-08-30T03:59:30;8.43;;;5.70;;
40122;SDS011;25832;45.490;4.912;2022-08-30T04:01:56;7.22;;;5.38;;
40122;SDS011;25832;45.490;4.912;2022-08-30T04:04:23;7.10;;;5.18;;
40122;SDS011;25832;45.490;4.912;2022-08-30T04:06:49;7.00;;;4.90;;
40122;SDS011;25832;45.490;4.912;2022-08-30T04:09:15;7.07;;;4.63;;
40122;SDS011;25832;45.490;4.912;2022-08-30T04:11:41;10.05;;;4.07;;
40122;SDS011;25832;45.490;4.912;2022-08-30T04:14:07;11.63;;;5.32;;
40122;SDS011;25832;45.490;4.912;2022-08-30T04:16:33;7.07;;;4.38;;
40122;SDS011;25832;45.490;4.912;2022-08-30T04:18:59;6.20;;;5.20;;
40122;SDS011;25832;45.490;4.912;2022-08-30T04:21:25;11.27;;;5.03;;
40122;SDS011;25832;45.490;4.912;2022-08-30T04:23:51;8.18;;;5.50;;
40122;SDS011;25832;45.490;4.912;2022-08-30T04:26:17;5.63;;;5.07;;
40122;SDS011;25832;45.490;4.912;2022-08-30T04:28:42;8.02;;;4.63;;
40122;SDS011;25832;45.490;4.912;2022-08-30T04:31:12;6.68;;;5.00;;
40122;SDS011;25832;45.490;4.912;2022-08-30T04:33:40;6.05;;;4.50;;
40122;SDS011;25832;45.490;4.912;2022-08-30T04:36:06;5.30;;;4.80;;
40122;SDS011;25832;45.490;4.912;2022-08-30T04:38:34;5.85;;;4.53;;
40122;SDS011;25832;45.490;4.912;2022-08-30T04:41:00;5.03;;;4.07;;
40122;SDS011;25832;45.490;4.912;2022-08-30T04:43:27;7.28;;;5.03;;
40122;SDS011;25832;45.490;4.912;2022-08-30T04:45:53;7.15;;;4.28;;
40122;SDS011;25832;45.490;4.912;2022-08-30T04:48:21;6.38;;;4.57;;
40122;SDS011;25832;45.490;4.912;2022-08-30T04:50:46;6.43;;;4.97;;
40122;SDS011;25832;45.490;4.912;2022-08-30T04:53:13;6.90;;;4.90;;
40122;SDS011;25832;45.490;4.912;2022-08-30T04:55:39;6.38;;;4.45;;
40122;SDS011;25832;45.490;4.912;2022-08-30T04:58:06;5.00;;;4.22;;
40122;SDS011;25832;45.490;4.912;2022-08-30T05:00:32;5.53;;;4.45;;
40122;SDS011;25832;45.490;4.912;2022-08-30T05:02:58;6.30;;;4.43;;
40122;SDS011;25832;45.490;4.912;2022-08-30T05:05:24;5.35;;;4.85;;
40122;SDS011;25832;45.490;4.912;2022-08-30T05:08:12;9.70;;;5.30;;
40122;SDS011;25832;45.490;4.912;2022-08-30T05:10:40;8.60;;;4.43;;
40122;SDS011;25832;45.490;4.912;2022-08-30T05:13:07;5.13;;;4.47;;
40122;SDS011;25832;45.490;4.912;2022-08-30T05:15:33;7.38;;;4.72;;
40122;SDS011;25832;45.490;4.912;2022-08-30T05:18:00;9.40;;;5.88;;
40122;SDS011;25832;45.490;4.912;2022-08-30T05:20:27;6.55;;;4.35;;
40122;SDS011;25832;45.490;4.912;2022-08-30T05:22:53;6.50;;;4.95;;
40122;SDS011;25832;45.490;4.912;2022-08-30T05:25:19;6.25;;;5.22;;
40122;SDS011;25832;45.490;4.912;2022-08-30T05:27:55;5.20;;;4.50;;
40122;SDS011;25832;45.490;4.912;2022-08-30T05:30:22;8.43;;;5.47;;
40122;SDS011;25832;45.490;4.912;2022-08-30T05:32:50;8.88;;;4.65;;
40122;SDS011;25832;45.490;4.912;2022-08-30T05:35:17;4.88;;;4.13;;
40122;SDS011;25832;45.490;4.912;2022-08-30T05:37:43;5.03;;;4.35;;
40122;SDS011;25832;45.490;4.912;2022-08-30T05:40:10;5.90;;;4.53;;
40122;SDS011;25832;45.490;4.912;2022-08-30T05:42:37;8.48;;;4.95;;
40122;SDS011;25832;45.490;4.912;2022-08-30T05:45:07;5.50;;;4.20;;
40122;SDS011;25832;45.490;4.912;2022-08-30T05:47:33;8.18;;;5.03;;
40122;SDS011;25832;45.490;4.912;2022-08-30T05:50:00;5.50;;;4.13;;
40122;SDS011;25832;45.490;4.912;2022-08-30T05:52:25;7.50;;;4.93;;
40122;SDS011;25832;45.490;4.912;2022-08-30T05:54:52;5.82;;;4.40;;
40122;SDS011;25832;45.490;4.912;2022-08-30T05:57:23;6.90;;;3.88;;
40122;SDS011;25832;45.490;4.912;2022-08-30T05:59:49;6.68;;;3.97;;
40122;SDS011;25832;45.490;4.912;2022-08-30T06:02:15;5.32;;;4.07;;
40122;SDS011;25832;45.490;4.912;2022-08-30T06:04:40;8.27;;;5.35;;
40122;SDS011;25832;45.490;4.912;2022-08-30T06:07:06;7.90;;;4.43;;
40122;SDS011;25832;45.490;4.912;2022-08-30T06:09:32;9.85;;;4.93;;
40122;SDS011;25832;45.490;4.912;2022-08-30T06:11:57;6.45;;;4.53;;
40122;SDS011;25832;45.490;4.912;2022-08-30T06:14:23;5.18;;;4.18;;
40122;SDS011;25832;45.490;4.912;2022-08-30T06:16:49;4.38;;;3.97;;
40122;SDS011;25832;45.490;4.912;2022-08-30T06:19:16;7.63;;;4.50;;
40122;SDS011;25832;45.490;4.912;2022-08-30T06:21:42;4.35;;;3.63;;
40122;SDS011;25832;45.490;4.912;2022-08-30T06:24:11;6.03;;;4.22;;
40122;SDS011;25832;45.490;4.912;2022-08-30T06:26:38;6.78;;;4.13;;
40122;SDS011;25832;45.490;4.912;2022-08-30T06:29:09;9.80;;;4.78;;
40122;SDS011;25832;45.490;4.912;2022-08-30T06:31:36;6.03;;;4.13;;
40122;SDS011;25832;45.490;4.912;2022-08-30T06:34:02;14.93;;;4.88;;
40122;SDS011;25832;45.490;4.912;2022-08-30T06:36:28;7.85;;;4.65;;
40122;SDS011;25832;45.490;4.912;2022-08-30T06:38:55;6.57;;;4.05;;
40122;SDS011;25832;45.490;4.912;2022-08-30T06:41:23;6.35;;;3.85;;
40122;SDS011;25832;45.490;4.912;2022-08-30T06:43:51;10.00;;;4.57;;
40122;SDS011;25832;45.490;4.912;2022-08-30T06:46:20;4.47;;;3.58;;
40122;SDS011;25832;45.490;4.912;2022-08-30T06:48:47;5.15;;;3.80;;
40122;SDS011;25832;45.490;4.912;2022-08-30T06:51:13;11.98;;;4.78;;
40122;SDS011;25832;45.490;4.912;2022-08-30T06:53:38;8.18;;;4.35;;
40122;SDS011;25832;45.490;4.912;2022-08-30T06:56:05;5.45;;;4.55;;
40122;SDS011;25832;45.490;4.912;2022-08-30T06:58:34;4.82;;;3.70;;
40122;SDS011;25832;45.490;4.912;2022-08-30T07:01:00;5.68;;;4.10;;
40122;SDS011;25832;45.490;4.912;2022-08-30T07:03:27;6.65;;;3.58;;
40122;SDS011;25832;45.490;4.912;2022-08-30T07:05:53;6.57;;;4.25;;
40122;SDS011;25832;45.490;4.912;2022-08-30T07:08:19;4.13;;;3.72;;
40122;SDS011;25832;45.490;4.912;2022-08-30T07:10:47;5.28;;;4.07;;
40122;SDS011;25832;45.490;4.912;2022-08-30T07:13:13;6.07;;;4.82;;
40122;SDS011;25832;45.490;4.912;2022-08-30T07:15:40;7.60;;;4.25;;
40122;SDS011;25832;45.490;4.912;2022-08-30T07:18:08;7.60;;;4.55;;
40122;SDS011;25832;45.490;4.912;2022-08-30T07:20:53;4.15;;;3.72;;
40122;SDS011;25832;45.490;4.912;2022-08-30T07:23:19;8.35;;;4.57;;
40122;SDS011;25832;45.490;4.912;2022-08-30T07:25:44;5.70;;;4.50;;
40122;SDS011;25832;45.490;4.912;2022-08-30T07:28:10;7.57;;;4.35;;
40122;SDS011;25832;45.490;4.912;2022-08-30T07:30:36;5.97;;;4.97;;
40122;SDS011;25832;45.490;4.912;2022-08-30T07:33:03;5.85;;;4.60;;
40122;SDS011;25832;45.490;4.912;2022-08-30T07:35:29;6.38;;;5.03;;
40122;SDS011;25832;45.490;4.912;2022-08-30T07:37:55;5.75;;;5.25;;
40122;SDS011;25832;45.490;4.912;2022-08-30T07:40:21;4.88;;;4.00;;
40122;SDS011;25832;45.490;4.912;2022-08-30T07:42:47;5.72;;;4.22;;
40122;SDS011;25832;45.490;4.912;2022-08-30T07:45:12;5.30;;;4.78;;
40122;SDS011;25832;45.490;4.912;2022-08-30T07:47:38;5.13;;;4.63;;
40122;SDS011;25832;45.490;4.912;2022-08-30T07:50:05;5.57;;;4.25;;
40122;SDS011;25832;45.490;4.912;2022-08-30T07:52:32;6.10;;;4.40;;
40122;SDS011;25832;45.490;4.912;2022-08-30T07:54:58;5.25;;;4.22;;
40122;SDS011;25832;45.490;4.912;2022-08-30T07:57:24;7.88;;;5.30;;
40122;SDS011;25832;45.490;4.912;2022-08-30T07:59:50;5.00;;;4.50;;
40122;SDS011;25832;45.490;4.912;2022-08-30T08:02:16;4.30;;;3.90;;
40122;SDS011;25832;45.490;4.912;2022-08-30T08:04:42;8.18;;;4.43;;
40122;SDS011;25832;45.490;4.912;2022-08-30T08:07:08;9.10;;;4.18;;
40122;SDS011;25832;45.490;4.912;2022-08-30T08:09:35;10.15;;;4.75;;
40122;SDS011;25832;45.490;4.912;2022-08-30T08:12:03;6.18;;;4.47;;
40122;SDS011;25832;45.490;4.912;2022-08-30T08:14:31;9.90;;;4.97;;
40122;SDS011;25832;45.490;4.912;2022-08-30T08:16:57;4.82;;;4.20;;
40122;SDS011;25832;45.490;4.912;2022-08-30T08:19:23;12.30;;;4.85;;
40122;SDS011;25832;45.490;4.912;2022-08-30T08:21:49;4.85;;;4.30;;
40122;SDS011;25832;45.490;4.912;2022-08-30T08:24:14;4.38;;;3.97;;
40122;SDS011;25832;45.490;4.912;2022-08-30T08:26:40;4.95;;;3.92;;
40122;SDS011;25832;45.490;4.912;2022-08-30T08:29:07;6.70;;;4.55;;
40122;SDS011;25832;45.490;4.912;2022-08-30T08:31:34;5.22;;;4.35;;
40122;SDS011;25832;45.490;4.912;2022-08-30T08:34:00;5.68;;;3.70;;
40122;SDS011;25832;45.490;4.912;2022-08-30T08:36:29;6.55;;;3.67;;
40122;SDS011;25832;45.490;4.912;2022-08-30T08:38:55;6.75;;;3.58;;
40122;SDS011;25832;45.490;4.912;2022-08-30T08:43:56;4.32;;;3.92;;
40122;SDS011;25832;45.490;4.912;2022-08-30T08:49:15;4.43;;;4.00;;
40122;SDS011;25832;45.490;4.912;2022-08-30T08:51:41;6.65;;;4.50;;
40122;SDS011;25832;45.490;4.912;2022-08-30T08:56:59;10.35;;;4.35;;
40122;SDS011;25832;45.490;4.912;2022-08-30T08:59:25;5.40;;;3.47;;
40122;SDS011;25832;45.490;4.912;2022-08-30T09:01:51;9.10;;;3.78;;
40122;SDS011;25832;45.490;4.912;2022-08-30T09:04:20;5.45;;;4.07;;
40122;SDS011;25832;45.490;4.912;2022-08-30T09:07:13;7.22;;;3.88;;
40122;SDS011;25832;45.490;4.912;2022-08-30T09:09:43;6.25;;;4.25;;
40122;SDS011;25832;45.490;4.912;2022-08-30T09:12:10;5.00;;;3.63;;
40122;SDS011;25832;45.490;4.912;2022-08-30T09:14:38;6.95;;;3.88;;
40122;SDS011;25832;45.490;4.912;2022-08-30T09:17:07;4.13;;;3.40;;
40122;SDS011;25832;45.490;4.912;2022-08-30T09:22:20;6.28;;;4.13;;
40122;SDS011;25832;45.490;4.912;2022-08-30T09:33:00;8.35;;;4.40;;
40122;SDS011;25832;45.490;4.912;2022-08-30T09:38:07;5.80;;;4.20;;
40122;SDS011;25832;45.490;4.912;2022-08-30T09:40:52;5.47;;;4.20;;
40122;SDS011;25832;45.490;4.912;2022-08-30T09:43:23;4.55;;;4.13;;
40122;SDS011;25832;45.490;4.912;2022-08-30T09:53:32;6.25;;;4.75;;
40122;SDS011;25832;45.490;4.912;2022-08-30T09:56:02;13.45;;;4.65;;
40122;SDS011;25832;45.490;4.912;2022-08-30T09:58:42;7.10;;;4.55;;
40122;SDS011;25832;45.490;4.912;2022-08-30T10:01:28;6.70;;;4.57;;
40122;SDS011;25832;45.490;4.912;2022-08-30T10:06:54;7.15;;;4.97;;
40122;SDS011;25832;45.490;4.912;2022-08-30T10:20:57;8.38;;;4.97;;
40122;SDS011;25832;45.490;4.912;2022-08-30T10:23:31;5.72;;;4.70;;
40122;SDS011;25832;45.490;4.912;2022-08-30T10:29:05;8.52;;;5.00;;
40122;SDS011;25832;45.490;4.912;2022-08-30T10:34:58;4.82;;;4.43;;
40122;SDS011;25832;45.490;4.912;2022-08-30T10:37:31;8.40;;;5.05;;
40122;SDS011;25832;45.490;4.912;2022-08-30T10:40:10;6.97;;;4.63;;
40122;SDS011;25832;45.490;4.912;2022-08-30T10:42:59;7.38;;;4.45;;
40122;SDS011;25832;45.490;4.912;2022-08-30T10:47:57;9.32;;;5.07;;
40122;SDS011;25832;45.490;4.912;2022-08-30T10:50:33;7.50;;;4.45;;
40122;SDS011;25832;45.490;4.912;2022-08-30T10:53:17;4.80;;;4.28;;
40122;SDS011;25832;45.490;4.912;2022-08-30T10:55:50;5.00;;;4.50;;
40122;SDS011;25832;45.490;4.912;2022-08-30T10:58:24;6.47;;;4.45;;
40122;SDS011;25832;45.490;4.912;2022-08-30T11:03:43;6.90;;;5.28;;
40122;SDS011;25832;45.490;4.912;2022-08-30T11:14:53;6.10;;;5.50;;
40122;SDS011;25832;45.490;4.912;2022-08-30T11:19:57;9.95;;;5.43;;
40122;SDS011;25832;45.490;4.912;2022-08-30T11:22:27;8.48;;;5.25;;
40122;SDS011;25832;45.490;4.912;2022-08-30T11:27:38;5.97;;;5.35;;
40122;SDS011;25832;45.490;4.912;2022-08-30T11:33:03;5.80;;;4.60;;
40122;SDS011;25832;45.490;4.912;2022-08-30T11:35:50;6.43;;;5.53;;
40122;SDS011;25832;45.490;4.912;2022-08-30T11:47:01;7.68;;;5.65;;
40122;SDS011;25832;45.490;4.912;2022-08-30T11:59:32;5.97;;;5.38;;
40122;SDS011;25832;45.490;4.912;2022-08-30T12:19:10;7.72;;;5.07;;
40122;SDS011;25832;45.490;4.912;2022-08-30T12:23:51;6.13;;;5.10;;
40122;SDS011;25832;45.490;4.912;2022-08-30T12:26:35;7.32;;;5.18;;
40122;SDS011;25832;45.490;4.912;2022-08-30T12:37:25;6.00;;;4.40;;
40122;SDS011;25832;45.490;4.912;2022-08-30T12:42:31;7.03;;;4.35;;
40122;SDS011;25832;45.490;4.912;2022-08-30T12:45:01;4.68;;;4.20;;
40122;SDS011;25832;45.490;4.912;2022-08-30T12:50:45;5.90;;;4.22;;
40122;SDS011;25832;45.490;4.912;2022-08-30T12:53:19;6.43;;;4.68;;
40122;SDS011;25832;45.490;4.912;2022-08-30T12:58:33;5.13;;;4.25;;
40122;SDS011;25832;45.490;4.912;2022-08-30T13:03:37;5.47;;;4.97;;
40122;SDS011;25832;45.490;4.912;2022-08-30T13:06:03;6.35;;;4.05;;
40122;SDS011;25832;45.490;4.912;2022-08-30T13:11:10;6.95;;;4.47;;
40122;SDS011;25832;45.490;4.912;2022-08-30T13:13:51;4.53;;;4.13;;
40122;SDS011;25832;45.490;4.912;2022-08-30T13:21:57;6.53;;;4.30;;
40122;SDS011;25832;45.490;4.912;2022-08-30T13:24:24;5.47;;;4.63;;
40122;SDS011;25832;45.490;4.912;2022-08-30T13:26:50;6.72;;;4.55;;
40122;SDS011;25832;45.490;4.912;2022-08-30T13:29:18;7.97;;;4.43;;
40122;SDS011;25832;45.490;4.912;2022-08-30T13:31:46;5.72;;;4.57;;
40122;SDS011;25832;45.490;4.912;2022-08-30T13:34:12;6.03;;;4.18;;
40122;SDS011;25832;45.490;4.912;2022-08-30T13:36:39;6.28;;;4.38;;
40122;SDS011;25832;45.490;4.912;2022-08-30T13:39:12;4.88;;;4.07;;
40122;SDS011;25832;45.490;4.912;2022-08-30T13:41:38;6.47;;;4.70;;
40122;SDS011;25832;45.490;4.912;2022-08-30T13:44:04;5.53;;;4.38;;
40122;SDS011;25832;45.490;4.912;2022-08-30T13:46:30;6.63;;;4.85;;
40122;SDS011;25832;45.490;4.912;2022-08-30T13:48:57;7.93;;;4.60;;
40122;SDS011;25832;45.490;4.912;2022-08-30T13:51:27;4.70;;;3.92;;
40122;SDS011;25832;45.490;4.912;2022-08-30T13:53:53;5.72;;;4.35;;
40122;SDS011;25832;45.490;4.912;2022-08-30T13:56:18;5.75;;;4.47;;
40122;SDS011;25832;45.490;4.912;2022-08-30T13:58:44;6.00;;;4.82;;
40122;SDS011;25832;45.490;4.912;2022-08-30T14:01:10;5.00;;;4.50;;
40122;SDS011;25832;45.490;4.912;2022-08-30T14:03:35;4.90;;;3.90;;
40122;SDS011;25832;45.490;4.912;2022-08-30T14:06:01;5.07;;;4.57;;
40122;SDS011;25832;45.490;4.912;2022-08-30T14:08:28;5.07;;;4.05;;
40122;SDS011;25832;45.490;4.912;2022-08-30T14:10:55;5.43;;;4.47;;
40122;SDS011;25832;45.490;4.912;2022-08-30T14:13:22;5.07;;;4.35;;
40122;SDS011;25832;45.490;4.912;2022-08-30T14:15:49;5.90;;;4.55;;
40122;SDS011;25832;45.490;4.912;2022-08-30T14:18:15;9.10;;;4.90;;
40122;SDS011;25832;45.490;4.912;2022-08-30T14:20:41;6.97;;;4.85;;
40122;SDS011;25832;45.490;4.912;2022-08-30T14:23:07;7.78;;;4.82;;
40122;SDS011;25832;45.490;4.912;2022-08-30T14:25:33;7.93;;;4.43;;
40122;SDS011;25832;45.490;4.912;2022-08-30T14:27:58;5.72;;;4.68;;
40122;SDS011;25832;45.490;4.912;2022-08-30T14:30:24;8.23;;;4.38;;
40122;SDS011;25832;45.490;4.912;2022-08-30T14:32:50;4.40;;;4.00;;
40122;SDS011;25832;45.490;4.912;2022-08-30T14:35:16;6.03;;;3.88;;
40122;SDS011;25832;45.490;4.912;2022-08-30T14:37:44;5.15;;;4.13;;
40122;SDS011;25832;45.490;4.912;2022-08-30T14:40:11;8.40;;;4.78;;
40122;SDS011;25832;45.490;4.912;2022-08-30T14:42:36;5.18;;;3.83;;
40122;SDS011;25832;45.490;4.912;2022-08-30T14:45:02;4.97;;;2.80;;
40122;SDS011;25832;45.490;4.912;2022-08-30T14:47:28;6.38;;;3.08;;
40122;SDS011;25832;45.490;4.912;2022-08-30T14:49:54;4.07;;;3.30;;
40122;SDS011;25832;45.490;4.912;2022-08-30T14:52:23;4.55;;;2.22;;
40122;SDS011;25832;45.490;4.912;2022-08-30T14:54:49;6.60;;;3.28;;
40122;SDS011;25832;45.490;4.912;2022-08-30T14:57:14;4.40;;;2.85;;
40122;SDS011;25832;45.490;4.912;2022-08-30T14:59:40;3.63;;;2.67;;
40122;SDS011;25832;45.490;4.912;2022-08-30T15:02:06;9.20;;;2.88;;
40122;SDS011;25832;45.490;4.912;2022-08-30T15:04:31;6.28;;;3.10;;
40122;SDS011;25832;45.490;4.912;2022-08-30T15:06:57;3.97;;;2.65;;
40122;SDS011;25832;45.490;4.912;2022-08-30T15:09:23;5.88;;;3.55;;
40122;SDS011;25832;45.490;4.912;2022-08-30T15:11:50;9.45;;;3.72;;
40122;SDS011;25832;45.490;4.912;2022-08-30T15:14:17;5.72;;;3.20;;
40122;SDS011;25832;45.490;4.912;2022-08-30T15:16:42;4.95;;;3.00;;
40122;SDS011;25832;45.490;4.912;2022-08-30T15:19:09;4.25;;;2.75;;
40122;SDS011;25832;45.490;4.912;2022-08-30T15:21:37;6.35;;;3.00;;
40122;SDS011;25832;45.490;4.912;2022-08-30T15:24:05;7.07;;;2.67;;
40122;SDS011;25832;45.490;4.912;2022-08-30T15:26:33;6.65;;;2.90;;
40122;SDS011;25832;45.490;4.912;2022-08-30T15:29:00;3.28;;;2.63;;
40122;SDS011;25832;45.490;4.912;2022-08-30T15:31:27;4.82;;;3.08;;
40122;SDS011;25832;45.490;4.912;2022-08-30T15:33:55;5.50;;;3.20;;
40122;SDS011;25832;45.490;4.912;2022-08-30T15:36:21;3.47;;;2.80;;
40122;SDS011;25832;45.490;4.912;2022-08-30T15:38:47;6.22;;;3.78;;
40122;SDS011;25832;45.490;4.912;2022-08-30T15:41:13;3.58;;;3.15;;
40122;SDS011;25832;45.490;4.912;2022-08-30T15:43:39;6.47;;;3.40;;
40122;SDS011;25832;45.490;4.912;2022-08-30T15:46:24;3.53;;;3.03;;
40122;SDS011;25832;45.490;4.912;2022-08-30T15:49:01;7.03;;;4.15;;
40122;SDS011;25832;45.490;4.912;2022-08-30T15:51:28;5.15;;;3.80;;
40122;SDS011;25832;45.490;4.912;2022-08-30T15:53:54;6.38;;;3.42;;
40122;SDS011;25832;45.490;4.912;2022-08-30T15:56:20;4.70;;;3.58;;
40122;SDS011;25832;45.490;4.912;2022-08-30T15:58:45;7.32;;;4.50;;
40122;SDS011;25832;45.490;4.912;2022-08-30T16:01:12;8.80;;;4.47;;
40122;SDS011;25832;45.490;4.912;2022-08-30T16:03:38;12.23;;;5.40;;
40122;SDS011;25832;45.490;4.912;2022-08-30T16:06:24;8.73;;;5.38;;
40122;SDS011;25832;45.490;4.912;2022-08-30T16:08:56;8.57;;;6.00;;
40122;SDS011;25832;45.490;4.912;2022-08-30T16:11:22;10.65;;;6.32;;
40122;SDS011;25832;45.490;4.912;2022-08-30T16:13:49;19.10;;;6.90;;
40122;SDS011;25832;45.490;4.912;2022-08-30T16:16:19;11.32;;;7.60;;
40122;SDS011;25832;45.490;4.912;2022-08-30T16:18:45;11.30;;;7.93;;
40122;SDS011;25832;45.490;4.912;2022-08-30T16:21:15;13.15;;;7.57;;
40122;SDS011;25832;45.490;4.912;2022-08-30T16:23:46;10.73;;;6.45;;
40122;SDS011;25832;45.490;4.912;2022-08-30T16:26:12;11.68;;;6.07;;
40122;SDS011;25832;45.490;4.912;2022-08-30T16:28:39;9.13;;;6.03;;
40122;SDS011;25832;45.490;4.912;2022-08-30T16:31:06;8.90;;;6.20;;
40122;SDS011;25832;45.490;4.912;2022-08-30T16:33:33;8.57;;;5.55;;
40122;SDS011;25832;45.490;4.912;2022-08-30T16:36:00;7.15;;;5.45;;
40122;SDS011;25832;45.490;4.912;2022-08-30T16:38:26;9.02;;;5.22;;
40122;SDS011;25832;45.490;4.912;2022-08-30T16:40:52;8.18;;;5.25;;
40122;SDS011;25832;45.490;4.912;2022-08-30T16:43:19;10.20;;;5.28;;
40122;SDS011;25832;45.490;4.912;2022-08-30T16:45:45;7.30;;;4.82;;
40122;SDS011;25832;45.490;4.912;2022-08-30T16:48:11;6.72;;;3.47;;
40122;SDS011;25832;45.490;4.912;2022-08-30T16:50:38;5.90;;;3.53;;
40122;SDS011;25832;45.490;4.912;2022-08-30T16:53:06;6.00;;;3.88;;
40122;SDS011;25832;45.490;4.912;2022-08-30T16:55:32;8.10;;;4.07;;
40122;SDS011;25832;45.490;4.912;2022-08-30T16:58:01;8.05;;;5.00;;
40122;SDS011;25832;45.490;4.912;2022-08-30T17:00:28;6.28;;;4.00;;
40122;SDS011;25832;45.490;4.912;2022-08-30T17:02:55;8.02;;;5.95;;
40122;SDS011;25832;45.490;4.912;2022-08-30T17:05:21;9.88;;;5.13;;
40122;SDS011;25832;45.490;4.912;2022-08-30T17:07:47;4.78;;;4.00;;
40122;SDS011;25832;45.490;4.912;2022-08-30T17:10:13;10.68;;;4.63;;
40122;SDS011;25832;45.490;4.912;2022-08-30T17:12:39;5.20;;;3.65;;